Bishop's Corner, Connecticut
Current Conditions -  °F | °C
As of 10:53 AM on Sunday 23 Nov 2014 (Local Time) from KHFD Reporting Station
Clear Clear  
Wind Chill: 51°   Ceiling: Unl
Heat Index: 51°   Visibility: 10mi
Dew Point: 24°   Wind: 7mph
Humidity: 35%   Direction: 190°S
Pressure: 30.16"   Gusts: NA
Location:  41.7863°N, 72.7619°W
Report Text: KHFD 231553Z 19006KT 10SM CLR 11/M04 A3016 RMK AO2 SLP213 T01061044
Loading
Personal Weather Stations






























Interactive Weather Map New forecast layout! Learn more

10-Day Weather Forecast

Advertisements
Track Severe Weather on mobile